Time;durP1;ratioP1;P1;durP2;ratioP2;P2;SDS_P1;SDS_P2;PMS_P1;PMS_P2;Temp;Humidity;BMP_temperature;BMP_pressure;BME280_temperature;BME280_humidity;BME280_pressure;Samples;Min_cycle;Max_cycle;Signal;HPM_P1;HPM_P2
2022/12/16 00:01:33;;;;;;;147.00;59.70;;;;;;;-6.48;82.62;99683.73;2121445;83;21683;-81
2022/12/16 00:04:34;;;;;;;151.17;63.07;;;;;;;-6.44;82.70;99684.00;2125144;83;21545;-82
2022/12/16 00:07:36;;;;;;;141.57;60.43;;;;;;;-6.43;82.71;99685.66;2119314;83;21078;-82
2022/12/16 00:10:51;;;;;;;143.50;62.20;;;;;;;-6.43;82.78;99694.23;2121269;83;21053;-82
2022/12/16 00:13:40;;;;;;;143.83;60.93;;;;;;;-6.43;82.79;99690.37;2107136;84;21641;-82
2022/12/16 00:16:41;;;;;;;141.70;60.00;;;;;;;-6.43;82.80;99685.66;2105894;84;21655;-82
2022/12/16 00:19:42;;;;;;;143.93;61.00;;;;;;;-6.44;83.03;99685.30;2082092;85;21470;-82
2022/12/16 00:22:43;;;;;;;140.87;60.23;;;;;;;-6.44;83.14;99695.62;2105844;83;21064;-82
2022/12/16 00:25:46;;;;;;;140.83;61.10;;;;;;;-6.45;83.15;99693.92;2106414;83;21565;-82
2022/12/16 00:28:47;;;;;;;137.57;59.27;;;;;;;-6.44;83.14;99689.99;2107322;84;21098;-81
2022/12/16 00:31:48;;;;;;;138.50;57.57;;;;;;;-6.42;83.35;99684.31;2107487;84;21013;-82
2022/12/16 00:34:49;;;;;;;146.67;62.73;;;;;;;-6.41;83.50;99673.07;2112479;83;22408;-82
2022/12/16 00:37:50;;;;;;;148.93;61.80;;;;;;;-6.36;83.54;99674.99;2107281;83;21068;-82
2022/12/16 00:40:51;;;;;;;147.23;61.33;;;;;;;-6.32;83.60;99673.92;2103674;83;21417;-82
2022/12/16 00:43:53;;;;;;;149.70;62.23;;;;;;;-6.25;83.58;99667.19;2105004;84;21003;-82
2022/12/16 00:46:53;;;;;;;129.15;54.38;;;;;;;-6.20;83.62;99672.98;2091204;84;21512;-82
2022/12/16 00:49:55;;;;;;;134.50;60.10;;;;;;;-6.16;83.69;99678.40;2101812;83;21052;-82
2022/12/16 00:52:56;;;;;;;136.90;57.50;;;;;;;-6.13;83.86;99670.50;2105527;83;21096;-82
2022/12/16 00:56:13;;;;;;;125.78;54.70;;;;;;;-6.13;83.97;99666.16;2109195;84;20955;-82
2022/12/16 00:59:14;;;;;;;131.03;56.02;;;;;;;-6.11;84.11;99659.62;2074612;84;21052;-82
2022/12/16 01:02:16;;;;;;;116.10;53.33;;;;;;;-6.08;84.10;99656.92;2067313;84;21064;-82
2022/12/16 01:05:20;;;;;;;137.00;58.00;;;;;;;-6.03;84.05;99641.19;2119247;83;20951;-82
2022/12/16 01:08:22;;;;;;;121.28;53.35;;;;;;;-5.98;84.07;99652.97;2125463;83;21060;-82
2022/12/16 01:11:23;;;;;;;121.50;53.60;;;;;;;-5.94;84.16;99640.30;2122239;83;21528;-82
2022/12/16 01:14:24;;;;;;;118.13;51.75;;;;;;;-5.90;84.10;99652.58;2116762;83;21025;-82
2022/12/16 01:17:26;;;;;;;117.72;50.88;;;;;;;-5.87;84.07;99653.26;2126199;83;21073;-82
2022/12/16 01:20:27;;;;;;;114.28;51.70;;;;;;;-5.81;84.00;99633.20;2120406;83;20994;-82
2022/12/16 01:23:28;;;;;;;111.22;50.05;;;;;;;-5.78;84.03;99612.37;2124263;83;21364;-82
2022/12/16 01:26:30;;;;;;;122.72;55.05;;;;;;;-5.79;84.24;99604.25;2133264;83;21677;-82
2022/12/16 01:29:31;;;;;;;134.00;55.00;;;;;;;-5.81;84.26;99609.48;2128621;82;21712;-82
2022/12/16 01:32:32;;;;;;;134.85;57.50;;;;;;;-5.81;84.29;99613.36;2127386;82;20964;-82
2022/12/16 01:35:33;;;;;;;122.20;54.55;;;;;;;-5.77;84.33;99616.62;2132953;82;21085;-82
2022/12/16 01:38:35;;;;;;;123.33;53.20;;;;;;;-5.72;84.57;99618.52;2126297;82;21600;-82
2022/12/16 01:41:37;;;;;;;128.53;51.77;;;;;;;-5.66;84.48;99625.54;2122766;83;20955;-82
2022/12/16 01:44:42;;;;;;;124.38;56.28;;;;;;;-5.62;84.33;99626.22;2132545;83;21018;-82
2022/12/16 01:47:43;;;;;;;124.72;55.67;;;;;;;-5.59;84.30;99622.64;2126189;83;21018;-82
2022/12/16 01:50:45;;;;;;;116.08;53.30;;;;;;;-5.55;84.31;99622.39;2130371;83;21596;-82
2022/12/16 01:53:48;;;;;;;125.12;52.83;;;;;;;-5.51;84.36;99616.63;2121769;83;21143;-82
2022/12/16 01:56:56;;;;;;;117.80;53.85;;;;;;;-5.48;84.23;99619.06;2130931;82;21112;-82
2022/12/16 01:59:58;;;;;;;113.17;47.83;;;;;;;-5.46;84.24;99620.66;2110295;83;21096;-82
2022/12/16 02:03:00;;;;;;;109.70;49.67;;;;;;;-5.44;84.22;99624.44;2130258;82;21042;-82
2022/12/16 02:06:03;;;;;;;118.47;50.38;;;;;;;-5.43;84.21;99628.72;2130266;83;21021;-82
2022/12/16 02:09:09;;;;;;;115.32;50.90;;;;;;;-5.41;84.19;99617.39;2119915;82;21016;-82
2022/12/16 02:12:37;;;;;;;117.82;50.08;;;;;;;-5.39;84.27;99613.41;2130583;82;21520;-82
2022/12/16 02:15:47;;;;;;;118.80;51.05;;;;;;;-5.36;84.21;99602.08;2127912;83;20967;-82
2022/12/16 02:19:18;;;;;;;104.70;44.83;;;;;;;-5.36;84.18;99592.56;2128340;82;21561;-82
2022/12/16 02:22:53;;;;;;;111.00;48.55;;;;;;;-5.35;84.24;99580.47;2074204;83;21074;-82
2022/12/16 02:26:29;;;;;;;113.03;48.60;;;;;;;-5.36;84.27;99580.93;2112577;83;21091;-82
2022/12/16 02:30:07;;;;;;;115.95;48.58;;;;;;;-5.37;84.33;99578.44;2117279;83;21519;-82
2022/12/16 02:33:31;;;;;;;121.80;53.85;;;;;;;-5.39;84.38;99566.04;2119441;83;21051;-82
2022/12/16 02:37:16;;;;;;;111.70;49.38;;;;;;;-5.39;84.25;99555.69;2116793;83;21224;-82
2022/12/16 02:40:29;;;;;;;103.90;42.53;;;;;;;-5.39;84.45;99560.87;2119191;83;21536;-82
2022/12/16 02:43:44;;;;;;;87.47;37.28;;;;;;;-5.41;84.50;99541.11;2125442;83;21015;-82
2022/12/16 02:46:55;;;;;;;112.83;46.55;;;;;;;-5.43;84.52;99536.46;2115158;83;21586;-82
2022/12/16 02:50:02;;;;;;;109.65;46.98;;;;;;;-5.42;84.52;99538.13;2119995;83;21077;-82
2022/12/16 02:53:08;;;;;;;121.62;48.85;;;;;;;-5.43;84.53;99536.46;2123015;83;21372;-82
2022/12/16 02:56:30;;;;;;;110.48;47.05;;;;;;;-5.43;84.54;99531.29;2112331;83;21074;-82
2022/12/16 03:00:07;;;;;;;115.72;46.63;;;;;;;-5.42;84.53;99539.88;2061784;84;21078;-82
2022/12/16 03:03:13;;;;;;;106.40;46.00;;;;;;;-5.41;84.44;99544.98;1979975;88;21648;-82
2022/12/16 03:06:19;;;;;;;106.85;47.35;;;;;;;-5.37;84.46;99546.95;2004416;87;21030;-82
2022/12/16 03:09:25;;;;;;;107.30;46.13;;;;;;;-5.33;84.41;99545.03;2099651;83;21030;-82
2022/12/16 03:12:27;;;;;;;99.60;43.00;;;;;;;-5.30;84.49;99556.03;2097581;83;21095;-82
2022/12/16 03:15:31;;;;;;;107.30;45.50;;;;;;;-5.27;84.42;99574.44;2092640;84;21002;-82
2022/12/16 03:18:39;;;;;;;103.78;46.08;;;;;;;-5.23;84.43;99555.28;2073005;84;21105;-82
2022/12/16 03:21:51;;;;;;;105.22;45.85;;;;;;;-5.20;84.38;99548.19;2068844;84;21088;-82
2022/12/16 03:24:53;;;;;;;96.30;43.75;;;;;;;-5.18;84.44;99541.62;2081912;83;21011;-82
2022/12/16 03:28:03;;;;;;;100.22;44.08;;;;;;;-5.16;84.49;99526.86;2083772;84;21033;-82
2022/12/16 03:31:09;;;;;;;104.63;48.70;;;;;;;-5.16;84.47;99533.33;2076973;84;21066;-82
2022/12/16 03:34:37;;;;;;;100.58;42.58;;;;;;;-5.15;84.43;99518.20;2095310;83;20990;-82
2022/12/16 03:37:40;;;;;;;101.90;44.65;;;;;;;-5.15;84.54;99516.91;2100115;84;21101;-82
2022/12/16 03:40:43;;;;;;;101.82;44.88;;;;;;;-5.14;84.44;99513.86;2083632;84;21002;-82
2022/12/16 03:43:44;;;;;;;98.00;44.55;;;;;;;-5.14;84.39;99512.56;2077142;84;21029;-82
2022/12/16 03:46:47;;;;;;;81.80;35.88;;;;;;;-5.15;84.35;99507.86;2090421;84;21082;-82
2022/12/16 03:49:48;;;;;;;97.97;43.92;;;;;;;-5.12;84.32;99512.00;2085065;84;21053;-82
2022/12/16 03:52:49;;;;;;;97.70;42.85;;;;;;;-5.12;84.24;99508.98;2094130;83;21509;-82
2022/12/16 03:55:51;;;;;;;98.30;44.05;;;;;;;-5.12;84.22;99505.10;2086037;83;21505;-82
2022/12/16 03:58:54;;;;;;;83.40;40.55;;;;;;;-5.12;84.16;99520.63;2089484;84;21030;-82
2022/12/16 04:01:55;;;;;;;84.13;38.48;;;;;;;-5.11;84.17;99524.04;2089657;83;21053;-82
2022/12/16 04:04:56;;;;;;;93.22;39.98;;;;;;;-5.11;84.15;99524.87;2087213;84;21103;-82
2022/12/16 04:07:57;;;;;;;90.12;40.75;;;;;;;-5.11;84.09;99521.45;2093045;84;21020;-82
2022/12/16 04:24:25;;;;;;;78.45;34.85;;;;;;;-5.03;83.87;99542.58;2111361;83;21018;-81
2022/12/16 04:27:28;;;;;;;82.50;40.15;;;;;;;-5.02;83.81;99545.06;2112949;83;21021;-81
2022/12/16 04:30:35;;;;;;;82.70;35.98;;;;;;;-5.00;83.63;99544.53;2115970;83;21084;-81
